QUAO2: Spring River Near Quapaw, OK

                                SHEF ID:       QUAO2     Spring River near Quapaw, OK
STATION TYPE:
Regulating: Stage = 20.00, Flow = 33834

PRECIP STAGE STAGE(2) RIV-FLOW BAT-LOAD
in ft ft cfs volt
Ccp-Rev Ccp-Rev Ccp-Rev Ccp-Rev Ccp-Rev
(America/Chicago)
04/27 00:00 0.00 8.11 8.10 3136 12.47
04/27 01:00 0.00 8.34 8.35 3534 12.45
04/27 02:00 0.00 9.65 9.71 5941 12.43
04/27 03:00 0.00 11.27 11.52 9233 12.39
04/27 04:00 0.00 12.57 12.92 11980 12.37
04/27 05:00 0.00 13.49 14.09 14200 12.37
04/27 06:00 0.00 14.64 15.06 17179 12.35
04/27 07:00 0.00 15.10 15.86 18432 12.34
04/27 08:00 0.00 15.65 16.33 19976 12.32
04/27 09:00 0.00 15.91 16.45 20723 12.43
04/27 10:00 0.00 15.96 16.52 20867 12.90
04/27 11:00 0.00 15.89 16.44 20665 12.99
04/27 12:00 0.00 15.74 16.32 20233 13.29
04/27 13:00 0.00 15.59 16.14 19805 13.17
04/27 14:00 0.00 15.34 15.92 19100 13.09
04/27 15:00 0.00 15.17 15.62 18626 12.88
04/27 16:00 0.00 14.79 15.21 17584 12.83
04/27 17:00 0.00 14.43 14.88 16618 13.14
04/27 18:00 0.00 14.22 14.60 16065 13.10
04/27 19:00 0.00 13.78 14.29 14930 12.80
04/27 20:00 0.00 13.60 14.03 14475 12.63
04/27 21:00 0.00 13.35 13.73 13852 12.52
04/27 22:00 0.00 13.11 13.42 13265 12.50
04/27 23:00 ---- ---- ---- ---- ----
Data processed at Tue 28Apr2026 03:21 GMT

NOTICE: If you are parsing this page

Please convert to using our Data API. Starting early 2026 we will be migrating to: https://water.usace.army.mil with modern pages rendered in JavaScript. When this migration completes you will no longer be able to scrape this page! CWMSDataAPI (CDA)

Timeseries IDs (TSIDs)

TSIDs used from left to right in the data table
QUAP.Precip-Inc.Total.1Hour.1Hour.Ccp-Rev
QUAP.Stage.Inst.1Hour.0.Ccp-Rev
QUAP.Stage-Alt.Inst.1Hour.0.Ccp-Rev
QUAP.Flow.Inst.1Hour.0.Ccp-Rev
QUAP.Volt-Battery Load.Inst.1Hour.0.Ccp-Rev

                            

All information presented herein is the property of the government of the United States of America and may be revised or deleted at any time without prior notice. Dissemination of this information without the expressed written consent of the Public Affairs Office, Tulsa District U.S. Army Corps of Engineers is strictly prohibited. These data are gathered electronically and, as presented, have NOT undergone any form of quality control. These data are NOT guaranteed to be valid or correct.